createdAt,value
2019-01-16T00:00:14.639Z,0.00
2019-01-16T00:01:14.612Z,0.00
2019-01-16T00:02:14.595Z,0.00
2019-01-16T00:03:14.568Z,0.00
2019-01-16T00:04:14.547Z,0.00
2019-01-16T00:05:14.526Z,0.00
2019-01-16T00:06:14.502Z,0.00
2019-01-16T00:08:56.978Z,0.00
2019-01-16T00:09:56.966Z,0.00
2019-01-16T00:10:56.938Z,0.00
2019-01-16T00:11:56.910Z,0.00
2019-01-16T00:12:56.890Z,0.00
2019-01-16T00:13:56.870Z,0.00
2019-01-16T00:14:56.857Z,0.00
2019-01-16T00:15:56.831Z,0.00
2019-01-16T00:16:56.804Z,0.00
2019-01-16T00:17:56.779Z,0.00
2019-01-16T00:18:56.753Z,0.00
2019-01-16T00:19:56.734Z,0.00
2019-01-16T00:20:56.712Z,0.00
2019-01-16T00:21:56.694Z,0.00
2019-01-16T00:22:56.668Z,0.00
2019-01-16T00:23:56.646Z,0.00
2019-01-16T00:24:56.628Z,0.00
2019-01-16T00:25:56.606Z,0.00
2019-01-16T00:26:56.581Z,0.00
2019-01-16T00:27:56.558Z,0.00
2019-01-16T00:28:56.538Z,0.00
2019-01-16T00:29:56.514Z,0.00
2019-01-16T00:30:56.494Z,0.00
2019-01-16T00:31:56.470Z,0.00
2019-01-16T00:32:56.447Z,0.00
2019-01-16T00:33:56.424Z,0.00
2019-01-16T00:34:56.411Z,0.00
2019-01-16T00:35:56.388Z,0.00
2019-01-16T00:36:56.359Z,0.00
2019-01-16T00:37:56.334Z,0.00
2019-01-16T00:38:56.313Z,0.00
2019-01-16T00:39:56.294Z,0.00
2019-01-16T00:40:56.267Z,0.00
2019-01-16T00:41:56.250Z,0.00
2019-01-16T00:42:56.224Z,0.00
2019-01-16T00:43:56.203Z,0.00
2019-01-16T00:44:56.183Z,0.00
2019-01-16T00:45:56.161Z,0.00
2019-01-16T00:46:56.135Z,0.00
2019-01-16T00:47:56.114Z,0.00
2019-01-16T00:48:56.090Z,0.00
2019-01-16T00:49:56.071Z,0.00
2019-01-16T00:50:56.045Z,0.00
2019-01-16T00:51:56.034Z,0.00
2019-01-16T00:52:56.007Z,0.00
2019-01-16T00:53:55.983Z,0.00
2019-01-16T00:54:55.965Z,0.00
2019-01-16T00:55:55.938Z,0.00
2019-01-16T00:56:55.917Z,0.00
2019-01-16T00:57:55.896Z,0.00
2019-01-16T00:58:55.907Z,0.00
2019-01-16T00:59:55.850Z,0.00
2019-01-16T01:00:55.833Z,0.00
2019-01-16T01:01:55.808Z,0.00
2019-01-16T01:02:55.785Z,0.00
2019-01-16T01:03:55.763Z,0.00
2019-01-16T01:04:55.741Z,0.00
2019-01-16T01:05:55.718Z,0.00
2019-01-16T01:06:55.697Z,0.00
2019-01-16T01:07:55.670Z,0.00
2019-01-16T01:08:55.652Z,0.00
2019-01-16T01:09:55.631Z,0.00
2019-01-16T01:10:55.607Z,0.00
2019-01-16T01:11:55.586Z,0.00
2019-01-16T01:12:55.563Z,0.00
2019-01-16T01:13:55.543Z,0.00
2019-01-16T01:14:55.521Z,0.00
2019-01-16T01:15:55.497Z,0.00
2019-01-16T01:16:55.477Z,0.00
2019-01-16T01:17:55.453Z,0.00
2019-01-16T01:18:55.431Z,0.00
2019-01-16T01:19:55.405Z,0.00
2019-01-16T01:20:55.391Z,0.00
2019-01-16T01:21:55.369Z,0.00
2019-01-16T01:22:55.342Z,0.00
2019-01-16T01:23:55.323Z,0.00
2019-01-16T01:24:55.304Z,0.00
2019-01-16T01:25:55.277Z,0.00
2019-01-16T01:26:55.255Z,0.00
2019-01-16T01:27:55.231Z,0.00
2019-01-16T01:28:55.208Z,0.00
2019-01-16T01:29:55.193Z,0.00
2019-01-16T01:30:55.167Z,0.00
2019-01-16T01:31:55.156Z,0.00
2019-01-16T01:32:55.127Z,0.00
2019-01-16T01:33:55.105Z,0.00
2019-01-16T01:34:55.078Z,0.00
2019-01-16T01:35:55.057Z,0.00
2019-01-16T01:36:55.035Z,0.00
2019-01-16T01:37:55.016Z,0.00
2019-01-16T01:38:54.991Z,0.00
2019-01-16T01:39:54.969Z,0.00
2019-01-16T01:40:54.951Z,0.00
2019-01-16T01:41:54.935Z,0.00
2019-01-16T01:42:54.903Z,0.00
2019-01-16T01:43:54.885Z,0.00
2019-01-16T01:44:54.865Z,0.00
2019-01-16T01:45:54.843Z,0.00
2019-01-16T01:46:54.817Z,0.00
2019-01-16T01:47:54.796Z,0.00
2019-01-16T01:48:54.771Z,0.00
2019-01-16T01:49:54.752Z,0.00
2019-01-16T01:50:54.729Z,0.00
2019-01-16T01:51:54.711Z,0.00
2019-01-16T01:52:54.695Z,0.00
2019-01-16T01:53:54.665Z,0.00
2019-01-16T01:54:54.641Z,0.00
2019-01-16T01:55:54.617Z,0.00
2019-01-16T01:56:54.599Z,0.00
2019-01-16T01:57:54.581Z,0.00
2019-01-16T01:58:54.551Z,0.00
2019-01-16T01:59:54.580Z,0.00
2019-01-16T02:00:54.507Z,0.00
2019-01-16T02:01:54.489Z,0.00
2019-01-16T02:02:54.465Z,0.00
2019-01-16T02:03:54.447Z,0.00
2019-01-16T02:04:54.424Z,0.00
2019-01-16T02:05:54.405Z,0.00
2019-01-16T02:06:54.400Z,0.00
2019-01-16T02:07:54.796Z,0.00
2019-01-16T02:08:54.333Z,0.00
2019-01-16T02:09:54.310Z,0.00
2019-01-16T02:10:54.290Z,0.00
2019-01-16T02:11:54.270Z,0.00
2019-01-16T02:12:54.246Z,0.00
2019-01-16T02:13:54.226Z,0.00
2019-01-16T02:14:54.214Z,0.00
2019-01-16T02:15:54.186Z,0.00
2019-01-16T02:16:54.163Z,0.00
2019-01-16T02:17:54.136Z,0.00
2019-01-16T02:18:54.118Z,0.00
2019-01-16T02:19:54.092Z,0.00
2019-01-16T02:20:54.070Z,0.00
2019-01-16T02:21:54.058Z,0.00
2019-01-16T02:22:54.028Z,0.00
2019-01-16T02:23:54.016Z,0.00
2019-01-16T02:24:53.990Z,0.00
2019-01-16T02:25:53.962Z,0.00
2019-01-16T02:26:53.938Z,0.00
2019-01-16T02:27:53.920Z,0.00
2019-01-16T02:28:53.898Z,0.00
2019-01-16T02:29:53.879Z,0.00
2019-01-16T02:30:53.854Z,0.00
2019-01-16T02:31:53.834Z,0.00
2019-01-16T02:32:53.812Z,0.00
2019-01-16T02:33:53.790Z,0.00
2019-01-16T02:34:53.770Z,0.00
2019-01-16T02:35:53.746Z,0.00
2019-01-16T02:36:53.726Z,0.00
2019-01-16T02:37:53.712Z,0.00
2019-01-16T02:38:53.681Z,0.00
2019-01-16T02:39:53.678Z,0.00
2019-01-16T02:40:53.642Z,0.00
2019-01-16T02:41:53.617Z,0.00
2019-01-16T02:42:53.599Z,0.00
2019-01-16T02:43:53.572Z,0.00
2019-01-16T02:44:53.556Z,0.00
2019-01-16T02:45:53.532Z,0.00
2019-01-16T02:46:53.594Z,0.00
2019-01-16T02:47:53.485Z,0.00
2019-01-16T02:48:56.243Z,0.00
2019-01-16T02:49:53.444Z,0.00
2019-01-16T02:50:53.427Z,0.00
2019-01-16T02:51:53.400Z,0.00
2019-01-16T02:52:53.382Z,0.00
2019-01-16T02:53:53.355Z,0.00
2019-01-16T02:54:53.335Z,0.00
2019-01-16T02:55:53.316Z,0.00
2019-01-16T02:56:53.290Z,0.00
2019-01-16T02:57:53.268Z,0.00
2019-01-16T02:58:53.244Z,0.00
2019-01-16T02:59:53.228Z,0.00
2019-01-16T03:00:53.203Z,0.00
2019-01-16T03:01:53.185Z,0.00
2019-01-16T03:02:53.164Z,0.00
2019-01-16T03:03:53.140Z,0.00
2019-01-16T03:04:53.118Z,0.00
2019-01-16T03:05:53.096Z,0.00
2019-01-16T03:06:53.073Z,0.00
2019-01-16T03:07:53.051Z,0.00
2019-01-16T03:08:53.028Z,0.00
2019-01-16T03:09:53.008Z,0.00
2019-01-16T03:10:52.998Z,0.00
2019-01-16T03:11:52.963Z,0.00
2019-01-16T03:12:52.943Z,0.00
2019-01-16T03:13:52.920Z,0.00
2019-01-16T03:14:52.898Z,0.00
2019-01-16T03:15:52.883Z,0.00
2019-01-16T03:16:52.862Z,0.00
2019-01-16T03:17:52.837Z,0.00
2019-01-16T03:18:52.816Z,0.00
2019-01-16T03:19:52.794Z,0.00
2019-01-16T03:20:52.768Z,0.00
2019-01-16T03:21:52.751Z,0.00
2019-01-16T03:22:52.729Z,0.00
2019-01-16T03:23:52.709Z,0.00
2019-01-16T03:24:52.687Z,0.00
2019-01-16T03:25:52.660Z,0.00
2019-01-16T03:26:52.640Z,0.00
2019-01-16T03:27:52.620Z,0.00
2019-01-16T03:28:52.602Z,0.00
2019-01-16T03:29:52.579Z,0.00
2019-01-16T03:30:52.557Z,0.00
2019-01-16T03:31:52.536Z,0.00
2019-01-16T03:32:52.512Z,0.00
2019-01-16T03:33:52.489Z,0.00
2019-01-16T03:34:52.469Z,0.00
2019-01-16T03:35:52.451Z,0.00
2019-01-16T03:36:52.428Z,0.00
2019-01-16T03:37:52.401Z,0.00
2019-01-16T03:38:52.379Z,0.00
2019-01-16T03:39:52.351Z,0.00
2019-01-16T03:40:52.326Z,0.00
2019-01-16T03:41:52.316Z,0.00
2019-01-16T03:42:52.302Z,0.00
2019-01-16T03:43:52.275Z,0.00
2019-01-16T03:44:52.256Z,0.00
2019-01-16T03:45:52.228Z,0.00
2019-01-16T03:46:52.205Z,0.00
2019-01-16T03:47:52.193Z,0.00
2019-01-16T03:48:52.163Z,0.00
2019-01-16T03:49:52.143Z,0.00
2019-01-16T03:50:52.129Z,0.00
2019-01-16T03:51:52.095Z,0.00
2019-01-16T03:52:52.079Z,0.00
2019-01-16T03:53:52.051Z,0.00
2019-01-16T03:54:52.043Z,0.00
2019-01-16T03:55:52.011Z,0.00
2019-01-16T03:56:51.984Z,0.00
2019-01-16T03:57:51.965Z,0.00
2019-01-16T03:58:51.947Z,0.00
2019-01-16T03:59:51.925Z,0.00
2019-01-16T04:00:51.897Z,0.00
2019-01-16T04:01:51.881Z,0.00
2019-01-16T04:02:51.857Z,0.00
2019-01-16T04:03:51.834Z,0.00
2019-01-16T04:04:51.879Z,0.00
2019-01-16T04:05:51.793Z,0.00
2019-01-16T04:06:51.769Z,0.00
2019-01-16T04:07:51.749Z,0.00
2019-01-16T04:08:51.722Z,0.00
2019-01-16T04:09:51.701Z,0.00
2019-01-16T04:10:51.682Z,0.00
2019-01-16T04:11:51.659Z,0.00
2019-01-16T04:12:51.637Z,0.00
2019-01-16T04:13:51.615Z,0.00
2019-01-16T04:14:51.589Z,0.00
2019-01-16T04:15:51.570Z,0.00
2019-01-16T04:16:51.549Z,0.00
2019-01-16T04:17:51.532Z,0.00
2019-01-16T04:18:51.501Z,0.00
2019-01-16T04:19:51.487Z,0.00
2019-01-16T04:20:51.465Z,0.00
2019-01-16T04:21:51.440Z,0.00
2019-01-16T04:22:51.415Z,0.00
2019-01-16T04:23:51.397Z,0.00
2019-01-16T04:24:51.377Z,0.00
2019-01-16T04:25:51.348Z,0.00
2019-01-16T04:26:51.327Z,0.00
2019-01-16T04:27:51.305Z,0.00
2019-01-16T04:28:51.283Z,0.00
2019-01-16T04:29:51.265Z,0.00
2019-01-16T04:30:51.242Z,0.00
2019-01-16T04:31:51.223Z,0.00
2019-01-16T04:32:51.197Z,0.00
2019-01-16T04:33:51.177Z,0.00
2019-01-16T04:34:51.154Z,0.00
2019-01-16T04:35:51.131Z,0.00
2019-01-16T04:36:51.111Z,0.00
2019-01-16T04:37:51.086Z,0.00
2019-01-16T04:38:51.069Z,0.00
2019-01-16T04:39:51.048Z,0.00
2019-01-16T04:40:51.033Z,0.00
2019-01-16T04:41:51.001Z,0.00
2019-01-16T04:42:50.977Z,0.00
2019-01-16T04:43:50.959Z,0.00
2019-01-16T04:44:50.936Z,0.00
2019-01-16T04:45:50.913Z,0.00
2019-01-16T04:46:50.889Z,0.00
2019-01-16T04:47:50.878Z,0.00
2019-01-16T04:48:50.849Z,0.00
2019-01-16T04:49:50.826Z,0.00
2019-01-16T04:50:50.799Z,0.00
2019-01-16T04:51:50.786Z,0.00
2019-01-16T04:52:50.759Z,0.00
2019-01-16T04:53:50.736Z,0.00
2019-01-16T04:54:50.715Z,0.00
2019-01-16T04:55:51.226Z,0.00
2019-01-16T04:56:50.668Z,0.00
2019-01-16T04:57:50.650Z,0.00
2019-01-16T04:58:50.629Z,0.00
2019-01-16T04:59:50.606Z,0.00
2019-01-16T05:00:50.583Z,0.00
2019-01-16T05:01:50.566Z,0.00
2019-01-16T05:02:50.542Z,0.00
2019-01-16T05:03:50.517Z,0.00
2019-01-16T05:04:50.494Z,0.00
2019-01-16T05:05:50.473Z,0.00
2019-01-16T05:06:50.450Z,0.00
2019-01-16T05:07:50.432Z,0.00
2019-01-16T05:08:50.412Z,0.00
2019-01-16T05:09:50.390Z,0.00
2019-01-16T05:10:50.369Z,0.00
2019-01-16T05:11:50.341Z,0.00
2019-01-16T05:12:50.316Z,0.00
2019-01-16T05:13:50.297Z,0.00
2019-01-16T05:14:50.272Z,0.00
2019-01-16T05:15:50.254Z,0.00
2019-01-16T05:16:50.233Z,0.00
2019-01-16T05:17:50.210Z,0.00
2019-01-16T05:18:50.190Z,0.00
2019-01-16T05:19:50.163Z,0.00
2019-01-16T05:20:50.142Z,0.00
2019-01-16T05:21:50.122Z,0.00
2019-01-16T05:22:50.094Z,0.00
2019-01-16T05:23:50.083Z,0.00
2019-01-16T05:24:50.058Z,0.00
2019-01-16T05:25:50.036Z,0.00
2019-01-16T05:26:50.008Z,0.00
2019-01-16T05:27:49.984Z,0.00
2019-01-16T05:28:49.967Z,0.00
2019-01-16T05:29:49.944Z,0.00
2019-01-16T05:30:49.923Z,0.00
2019-01-16T05:31:49.904Z,0.00
2019-01-16T05:32:49.879Z,0.00
2019-01-16T05:33:49.860Z,0.00
2019-01-16T05:34:49.836Z,0.00
2019-01-16T05:35:49.818Z,0.00
2019-01-16T05:36:49.792Z,0.00
2019-01-16T05:37:49.771Z,0.00
2019-01-16T05:38:49.745Z,0.00
2019-01-16T05:39:49.727Z,0.00
2019-01-16T05:40:49.707Z,0.00
2019-01-16T05:41:49.687Z,0.00
2019-01-16T05:42:49.656Z,0.00
2019-01-16T05:43:49.636Z,0.00
2019-01-16T05:44:49.618Z,0.00
2019-01-16T05:45:49.592Z,0.00
2019-01-16T05:46:49.568Z,0.00
2019-01-16T05:47:49.548Z,0.00
2019-01-16T05:48:49.527Z,0.00
2019-01-16T05:49:49.503Z,0.00
2019-01-16T05:50:49.485Z,0.00
2019-01-16T05:51:49.458Z,0.00
2019-01-16T05:52:49.440Z,0.00
2019-01-16T05:53:49.419Z,0.00
2019-01-16T05:54:49.409Z,0.00
2019-01-16T05:55:49.373Z,0.00
2019-01-16T05:56:49.357Z,0.00
2019-01-16T05:57:49.336Z,0.00
2019-01-16T05:58:49.309Z,0.00
2019-01-16T05:59:49.283Z,0.00
2019-01-16T06:00:49.262Z,0.00
2019-01-16T06:01:49.242Z,0.00
2019-01-16T06:02:49.223Z,0.00
2019-01-16T06:03:49.199Z,0.00
2019-01-16T06:04:49.177Z,0.00
2019-01-16T06:05:49.153Z,0.00
2019-01-16T06:06:49.132Z,0.00
2019-01-16T06:07:49.127Z,0.00
2019-01-16T06:08:49.088Z,0.00
2019-01-16T06:09:49.062Z,0.00
2019-01-16T06:10:49.049Z,0.00
2019-01-16T06:11:49.022Z,0.00
2019-01-16T06:12:49.002Z,0.00
2019-01-16T06:13:48.977Z,0.00
2019-01-16T06:14:48.955Z,0.00
2019-01-16T06:15:48.936Z,0.00
2019-01-16T06:16:48.914Z,0.00
2019-01-16T06:17:48.887Z,0.00
2019-01-16T06:18:48.871Z,0.00
2019-01-16T06:19:54.050Z,0.00
2019-01-16T06:20:48.825Z,0.00
2019-01-16T06:21:48.800Z,0.00
2019-01-16T06:22:48.783Z,0.00
2019-01-16T06:23:48.759Z,0.00
2019-01-16T06:24:48.736Z,0.00
2019-01-16T06:25:48.713Z,0.00
2019-01-16T06:26:48.692Z,0.00
2019-01-16T06:27:48.669Z,0.00
2019-01-16T06:28:48.650Z,0.00
2019-01-16T06:29:48.627Z,0.00
2019-01-16T06:30:48.604Z,0.00
2019-01-16T06:31:48.583Z,0.00
2019-01-16T06:32:49.346Z,0.00
2019-01-16T06:33:48.545Z,0.00
2019-01-16T06:34:48.519Z,0.00
2019-01-16T06:35:48.492Z,0.00
2019-01-16T06:36:48.482Z,0.00
2019-01-16T06:37:48.451Z,0.00
2019-01-16T06:38:48.425Z,0.00
2019-01-16T06:39:48.401Z,4.00
2019-01-16T06:40:48.379Z,4.00
2019-01-16T06:41:48.360Z,0.00
2019-01-16T06:42:48.343Z,0.00
2019-01-16T06:43:48.316Z,0.00
2019-01-16T06:44:48.295Z,0.00
2019-01-16T06:45:48.271Z,4.00
2019-01-16T06:46:48.247Z,4.00
2019-01-16T06:47:48.225Z,4.00
2019-01-16T06:48:48.201Z,8.00
2019-01-16T06:49:48.187Z,4.00
2019-01-16T06:50:48.161Z,12.00
2019-01-16T06:51:48.241Z,16.00
2019-01-16T06:52:48.121Z,16.00
2019-01-16T06:53:48.097Z,16.00
2019-01-16T06:54:48.071Z,20.00
2019-01-16T06:55:48.056Z,24.00
2019-01-16T06:56:48.033Z,28.00
2019-01-16T06:57:48.005Z,28.00
2019-01-16T06:58:47.995Z,32.00
2019-01-16T06:59:47.961Z,36.00
2019-01-16T07:00:47.941Z,36.00
2019-01-16T07:01:47.920Z,40.00
2019-01-16T07:02:47.895Z,32.00
2019-01-16T07:03:47.874Z,28.00
2019-01-16T07:04:47.851Z,20.00
2019-01-16T07:05:47.837Z,32.00
2019-01-16T07:06:47.809Z,40.00
2019-01-16T07:07:47.783Z,36.00
2019-01-16T07:08:47.770Z,36.00
2019-01-16T07:09:47.743Z,36.00
2019-01-16T07:10:47.717Z,40.00
2019-01-16T07:11:47.696Z,52.00
2019-01-16T07:12:47.675Z,68.00
2019-01-16T07:13:47.650Z,88.00
2019-01-16T07:14:47.634Z,92.00
2019-01-16T07:15:47.610Z,96.00
2019-01-16T07:16:47.590Z,108.00
2019-01-16T07:17:47.564Z,128.00
2019-01-16T07:18:47.543Z,148.00
2019-01-16T07:19:47.521Z,156.00
2019-01-16T07:20:47.500Z,128.00
2019-01-16T07:21:47.488Z,120.00
2019-01-16T07:22:47.452Z,116.00
2019-01-16T07:23:47.443Z,116.00
2019-01-16T07:24:47.411Z,140.00
2019-01-16T07:25:47.388Z,148.00
2019-01-16T07:26:47.366Z,152.00
2019-01-16T07:27:47.347Z,152.00
2019-01-16T07:28:47.325Z,148.00
2019-01-16T07:29:47.302Z,132.00
2019-01-16T07:30:47.279Z,136.00
2019-01-16T07:31:47.254Z,140.00
2019-01-16T07:32:47.235Z,120.00
2019-01-16T07:33:47.216Z,128.00
2019-01-16T07:34:47.186Z,108.00
2019-01-16T07:35:47.170Z,156.00
2019-01-16T07:36:47.145Z,232.00
2019-01-16T07:37:47.123Z,272.00
2019-01-16T07:38:47.107Z,284.00
2019-01-16T07:39:47.078Z,272.00
2019-01-16T07:40:47.054Z,300.00
2019-01-16T07:41:47.039Z,352.00
2019-01-16T07:42:47.283Z,316.00
2019-01-16T07:43:46.992Z,296.00
2019-01-16T07:44:46.970Z,280.00
2019-01-16T07:45:46.946Z,272.00
2019-01-16T07:46:46.928Z,288.00
2019-01-16T07:47:46.901Z,316.00
2019-01-16T07:48:46.878Z,328.00
2019-01-16T07:49:46.860Z,348.00
2019-01-16T07:50:46.839Z,376.00
2019-01-16T07:51:46.814Z,364.00
2019-01-16T07:52:46.796Z,360.00
2019-01-16T07:53:46.770Z,304.00
2019-01-16T07:54:46.746Z,328.00
2019-01-16T07:55:46.725Z,376.00
2019-01-16T07:56:46.703Z,440.00
2019-01-16T07:57:46.688Z,604.00
2019-01-16T07:58:46.664Z,660.00
2019-01-16T07:59:46.635Z,760.00
2019-01-16T08:00:46.668Z,736.00
2019-01-16T08:01:46.592Z,632.00
2019-01-16T08:02:46.570Z,520.00
2019-01-16T08:03:46.549Z,468.00
2019-01-16T08:04:46.524Z,480.00
2019-01-16T08:05:46.503Z,584.00
2019-01-16T08:06:46.556Z,596.00
2019-01-16T08:07:46.460Z,584.00
2019-01-16T08:08:46.441Z,448.00
2019-01-16T08:09:46.417Z,424.00
2019-01-16T08:10:46.401Z,412.00
2019-01-16T08:11:46.370Z,516.00
2019-01-16T08:12:46.350Z,624.00
2019-01-16T08:13:46.330Z,684.00
2019-01-16T08:14:46.304Z,652.00
2019-01-16T08:15:46.284Z,496.00
2019-01-16T08:16:46.265Z,488.00
2019-01-16T08:17:46.244Z,388.00
2019-01-16T08:18:46.216Z,296.00
2019-01-16T08:19:46.202Z,284.00
2019-01-16T08:20:46.171Z,264.00
2019-01-16T08:21:46.150Z,236.00
2019-01-16T08:22:46.128Z,260.00
2019-01-16T08:23:46.118Z,280.00
2019-01-16T08:24:46.082Z,292.00
2019-01-16T08:25:46.072Z,300.00
2019-01-16T08:26:46.040Z,288.00
2019-01-16T08:27:46.018Z,376.00
2019-01-16T08:28:45.995Z,452.00
2019-01-16T08:29:45.973Z,376.00
2019-01-16T08:30:45.960Z,320.00
2019-01-16T08:31:45.938Z,340.00
2019-01-16T08:32:45.906Z,448.00
2019-01-16T08:33:45.889Z,432.00
2019-01-16T08:34:45.866Z,492.00
2019-01-16T08:35:45.844Z,560.00
2019-01-16T08:36:45.820Z,764.00
2019-01-16T08:37:45.802Z,660.00
2019-01-16T08:38:45.778Z,552.00
2019-01-16T08:39:45.756Z,532.00
2019-01-16T08:40:45.732Z,516.00
2019-01-16T08:41:45.708Z,524.00
2019-01-16T08:42:45.689Z,632.00
2019-01-16T08:43:45.666Z,644.00
2019-01-16T08:44:45.644Z,752.00
2019-01-16T08:45:45.630Z,808.00
2019-01-16T08:46:45.600Z,696.00
2019-01-16T08:47:45.579Z,592.00
2019-01-16T08:48:45.552Z,872.00
2019-01-16T08:49:45.539Z,912.00
2019-01-16T08:50:45.511Z,888.00
2019-01-16T08:51:45.494Z,1092.00
2019-01-16T08:52:45.467Z,892.00
2019-01-16T08:53:45.444Z,744.00
2019-01-16T08:54:45.423Z,724.00
2019-01-16T08:55:45.400Z,728.00
2019-01-16T08:56:45.378Z,636.00
2019-01-16T08:57:45.369Z,612.00
2019-01-16T08:58:46.760Z,616.00
2019-01-16T08:59:45.314Z,628.00
2019-01-16T09:00:45.290Z,696.00
2019-01-16T09:01:45.269Z,644.00
2019-01-16T09:02:45.246Z,544.00
2019-01-16T09:03:45.224Z,488.00
2019-01-16T09:04:45.204Z,576.00
2019-01-16T09:05:45.178Z,928.00
2019-01-16T09:06:45.161Z,1328.00
2019-01-16T09:07:45.140Z,1200.00
2019-01-16T09:08:45.138Z,868.00
2019-01-16T09:09:45.095Z,832.00
2019-01-16T09:10:45.075Z,672.00
2019-01-16T09:11:45.046Z,592.00
2019-01-16T09:12:45.024Z,680.00
2019-01-16T09:13:45.006Z,676.00
2019-01-16T09:14:44.987Z,788.00
2019-01-16T09:15:45.011Z,832.00
2019-01-16T09:16:44.935Z,1260.00
2019-01-16T09:17:44.917Z,1396.00
2019-01-16T09:18:44.893Z,1284.00
2019-01-16T09:19:44.871Z,860.00
2019-01-16T09:20:44.849Z,800.00
2019-01-16T09:21:44.829Z,756.00
2019-01-16T09:22:45.034Z,912.00
2019-01-16T09:23:44.786Z,544.00
2019-01-16T09:24:44.759Z,640.00
2019-01-16T09:25:44.744Z,812.00
2019-01-16T09:26:44.714Z,960.00
2019-01-16T09:27:44.697Z,1108.00
2019-01-16T09:28:44.674Z,1148.00
2019-01-16T09:29:44.653Z,1064.00
2019-01-16T09:30:44.634Z,1000.00
2019-01-16T09:31:44.611Z,804.00
2019-01-16T09:32:44.587Z,796.00
2019-01-16T09:33:44.565Z,728.00
2019-01-16T09:34:44.551Z,644.00
2019-01-16T09:35:44.523Z,584.00
2019-01-16T09:36:44.499Z,620.00
2019-01-16T09:37:44.481Z,692.00
2019-01-16T09:38:44.455Z,756.00
2019-01-16T09:39:44.431Z,852.00
2019-01-16T09:40:44.415Z,748.00
2019-01-16T09:41:44.387Z,892.00
2019-01-16T09:42:44.366Z,728.00
2019-01-16T09:43:44.343Z,804.00
2019-01-16T09:44:44.321Z,628.00
2019-01-16T09:45:44.300Z,560.00
2019-01-16T09:46:44.281Z,632.00
2019-01-16T09:47:44.257Z,540.00
2019-01-16T09:48:44.239Z,540.00
2019-01-16T09:49:44.222Z,500.00
2019-01-16T09:50:47.987Z,488.00
2019-01-16T09:51:44.170Z,436.00
2019-01-16T09:52:44.155Z,412.00
2019-01-16T09:53:44.132Z,424.00
2019-01-16T09:54:44.101Z,436.00
2019-01-16T09:55:44.079Z,468.00
2019-01-16T09:56:44.063Z,536.00
2019-01-16T09:57:44.034Z,672.00
2019-01-16T09:58:44.017Z,684.00
2019-01-16T09:59:43.990Z,800.00
2019-01-16T10:00:43.970Z,720.00
2019-01-16T10:01:43.952Z,780.00
2019-01-16T10:02:43.925Z,752.00
2019-01-16T10:03:43.904Z,960.00
2019-01-16T10:04:43.881Z,1136.00
2019-01-16T10:05:43.860Z,940.00
2019-01-16T10:06:43.839Z,776.00
2019-01-16T10:07:43.819Z,928.00
2019-01-16T10:08:43.809Z,1004.00
2019-01-16T10:09:43.773Z,1016.00
2019-01-16T10:10:43.751Z,1176.00
2019-01-16T10:11:43.736Z,1336.00
2019-01-16T10:12:43.713Z,1584.00
2019-01-16T10:13:43.685Z,1564.00
2019-01-16T10:14:43.666Z,1592.00
2019-01-16T10:15:43.643Z,1296.00
2019-01-16T10:16:43.618Z,1040.00
2019-01-16T10:17:43.601Z,1032.00
2019-01-16T10:18:47.212Z,1008.00
2019-01-16T10:19:43.556Z,1360.00
2019-01-16T10:20:46.289Z,1320.00
2019-01-16T10:21:46.535Z,1432.00
2019-01-16T10:24:11.082Z,992.00
2019-01-16T10:25:11.053Z,880.00
2019-01-16T10:26:11.035Z,824.00
2019-01-16T10:27:11.014Z,1040.00
2019-01-16T10:28:10.992Z,1060.00
2019-01-16T10:29:10.968Z,1012.00
2019-01-16T10:30:10.950Z,1088.00
2019-01-16T10:31:10.922Z,1040.00
2019-01-16T10:32:10.900Z,1080.00
2019-01-16T10:33:10.880Z,948.00
2019-01-16T10:34:10.861Z,924.00
2019-01-16T10:35:10.835Z,968.00
2019-01-16T10:36:10.817Z,1008.00
2019-01-16T10:37:10.789Z,764.00
2019-01-16T10:38:10.764Z,644.00
2019-01-16T10:39:10.750Z,764.00
2019-01-16T10:40:10.724Z,932.00
2019-01-16T10:41:10.700Z,1036.00
2019-01-16T10:42:10.690Z,976.00
2019-01-16T10:43:10.660Z,948.00
2019-01-16T10:44:10.636Z,856.00
2019-01-16T10:45:10.618Z,924.00
2019-01-16T10:46:10.592Z,948.00
2019-01-16T10:47:10.570Z,836.00
2019-01-16T10:48:10.546Z,936.00
2019-01-16T10:49:10.530Z,1000.00
2019-01-16T10:50:10.506Z,1248.00
2019-01-16T10:51:10.480Z,1356.00
2019-01-16T10:52:10.461Z,1548.00
2019-01-16T10:53:10.434Z,1432.00
2019-01-16T10:54:10.418Z,1340.00
2019-01-16T10:55:10.390Z,1336.00
2019-01-16T10:56:10.374Z,1284.00
2019-01-16T10:57:10.354Z,1264.00
2019-01-16T10:58:10.326Z,900.00
2019-01-16T10:59:10.301Z,888.00
2019-01-16T11:00:10.281Z,920.00
2019-01-16T11:01:10.259Z,1060.00
2019-01-16T11:02:10.239Z,1204.00
2019-01-16T11:03:10.217Z,1372.00
2019-01-16T11:04:10.190Z,1476.00
2019-01-16T11:05:10.172Z,1536.00
2019-01-16T11:06:10.146Z,1568.00
2019-01-16T11:07:10.126Z,1516.00
2019-01-16T11:08:10.106Z,1396.00
2019-01-16T11:09:10.078Z,1320.00
2019-01-16T11:10:10.059Z,1248.00
2019-01-16T11:11:16.073Z,1232.00
2019-01-16T11:12:10.016Z,1300.00
2019-01-16T11:13:09.995Z,1364.00
2019-01-16T11:14:09.971Z,1304.00
2019-01-16T11:15:09.952Z,1284.00
2019-01-16T11:16:09.930Z,1184.00
2019-01-16T11:17:09.904Z,1256.00
2019-01-16T11:18:09.884Z,1268.00
2019-01-16T11:19:09.860Z,1232.00
2019-01-16T11:20:09.839Z,1212.00
2019-01-16T11:21:11.132Z,1184.00
2019-01-16T11:22:09.794Z,1216.00
2019-01-16T11:23:09.771Z,1220.00
2019-01-16T11:24:09.750Z,1248.00
2019-01-16T11:25:09.730Z,1288.00
2019-01-16T11:26:09.708Z,1412.00
2019-01-16T11:27:09.684Z,1428.00
2019-01-16T11:28:09.662Z,1552.00
2019-01-16T11:29:09.638Z,1668.00
2019-01-16T11:30:09.619Z,1808.00
2019-01-16T11:31:09.594Z,1948.00
2019-01-16T11:32:09.572Z,1992.00
2019-01-16T11:33:09.552Z,1952.00
2019-01-16T11:34:09.526Z,1868.00
2019-01-16T11:35:09.510Z,2040.00
2019-01-16T11:36:09.486Z,2308.00
2019-01-16T11:37:09.475Z,2400.00
2019-01-16T11:38:09.439Z,2376.00
2019-01-16T11:39:09.428Z,2436.00
2019-01-16T11:40:09.396Z,2484.00
2019-01-16T11:41:09.376Z,2516.00
2019-01-16T11:42:09.358Z,2440.00
2019-01-16T11:43:09.338Z,2376.00
2019-01-16T11:44:09.314Z,2392.00
2019-01-16T11:45:09.283Z,2392.00
2019-01-16T11:46:09.267Z,2324.00
2019-01-16T11:47:09.241Z,2180.00
2019-01-16T11:48:09.224Z,2080.00
2019-01-16T11:49:09.202Z,1940.00
2019-01-16T11:50:09.202Z,1792.00
2019-01-16T11:51:09.156Z,1652.00
2019-01-16T11:52:09.134Z,1600.00
2019-01-16T11:53:09.111Z,1640.00
2019-01-16T11:54:09.090Z,1768.00
2019-01-16T11:55:09.072Z,1884.00
2019-01-16T11:56:09.053Z,1992.00
2019-01-16T11:57:09.027Z,2052.00
2019-01-16T11:58:09.001Z,2084.00
2019-01-16T11:59:08.980Z,2028.00
2019-01-16T12:00:08.963Z,2004.00
2019-01-16T12:01:08.938Z,2032.00
2019-01-16T12:02:08.929Z,2184.00
2019-01-16T12:03:08.893Z,2160.00
2019-01-16T12:04:08.873Z,2276.00
2019-01-16T12:05:08.857Z,2176.00
2019-01-16T12:06:08.835Z,2008.00
2019-01-16T12:07:08.803Z,2000.00
2019-01-16T12:08:08.784Z,2408.00
2019-01-16T12:09:08.762Z,2300.00
2019-01-16T12:10:08.743Z,2176.00
2019-01-16T12:11:08.717Z,2244.00
2019-01-16T12:12:08.697Z,2420.00
2019-01-16T12:13:08.676Z,2420.00
2019-01-16T12:14:08.653Z,2280.00
2019-01-16T12:15:08.633Z,2420.00
2019-01-16T12:16:08.611Z,2280.00
2019-01-16T12:17:08.590Z,2608.00
2019-01-16T12:18:08.572Z,2412.00
2019-01-16T12:19:08.545Z,2156.00
2019-01-16T12:20:08.528Z,2104.00
2019-01-16T12:21:08.502Z,1832.00
2019-01-16T12:22:08.483Z,1608.00
2019-01-16T12:23:08.455Z,1460.00
2019-01-16T12:24:08.437Z,1372.00
2019-01-16T12:25:08.418Z,1260.00
2019-01-16T12:26:08.531Z,1188.00
2019-01-16T12:27:08.371Z,1068.00
2019-01-16T12:28:08.349Z,1060.00
2019-01-16T12:29:08.331Z,1100.00
2019-01-16T12:30:08.306Z,1276.00
2019-01-16T12:31:08.282Z,1540.00
2019-01-16T12:32:08.261Z,1676.00
2019-01-16T12:33:08.243Z,1688.00
2019-01-16T12:34:08.224Z,1576.00
2019-01-16T12:35:08.205Z,1644.00
2019-01-16T12:36:08.176Z,1508.00
2019-01-16T12:37:08.153Z,1516.00
2019-01-16T12:38:08.130Z,1340.00
2019-01-16T12:39:08.120Z,1388.00
2019-01-16T12:40:08.089Z,1364.00
2019-01-16T12:41:08.065Z,1464.00
2019-01-16T12:42:08.044Z,1404.00
2019-01-16T12:43:08.023Z,1260.00
2019-01-16T12:44:07.999Z,1396.00
2019-01-16T12:45:07.983Z,1384.00
2019-01-16T12:46:07.957Z,1448.00
2019-01-16T12:47:07.937Z,1532.00
2019-01-16T12:48:07.918Z,1452.00
2019-01-16T12:49:07.891Z,1376.00
2019-01-16T12:50:07.871Z,1416.00
2019-01-16T12:51:07.850Z,1604.00
2019-01-16T12:52:07.829Z,1608.00
2019-01-16T12:53:07.807Z,1452.00